sensor_id;sensor_type;location;lat;lon;timestamp;pressure;altitude;pressure_sealevel;temperature;humidity
40276;BME280;25990;52.768;16.930;2024-03-17T00:01:04;101984.80;;;3.70;79.71
40276;BME280;25990;52.768;16.930;2024-03-17T00:03:26;101997.45;;;3.78;79.52
40276;BME280;25990;52.768;16.930;2024-03-17T00:05:48;101994.42;;;3.82;78.78
40276;BME280;25990;52.768;16.930;2024-03-17T00:08:11;101995.91;;;3.88;78.42
40276;BME280;25990;52.768;16.930;2024-03-17T00:10:33;101994.23;;;3.89;78.18
40276;BME280;25990;52.768;16.930;2024-03-17T00:12:55;101998.12;;;3.94;78.08
40276;BME280;25990;52.768;16.930;2024-03-17T00:15:17;101998.72;;;4.00;77.72
40276;BME280;25990;52.768;16.930;2024-03-17T00:17:39;101999.03;;;4.03;77.18
40276;BME280;25990;52.768;16.930;2024-03-17T00:20:02;102000.35;;;4.08;77.41
40276;BME280;25990;52.768;16.930;2024-03-17T00:22:24;101999.12;;;4.13;76.20
40276;BME280;25990;52.768;16.930;2024-03-17T00:24:46;101994.56;;;4.20;76.69
40276;BME280;25990;52.768;16.930;2024-03-17T00:27:09;101984.88;;;4.26;76.97
40276;BME280;25990;52.768;16.930;2024-03-17T00:29:31;101984.83;;;4.34;76.69
40276;BME280;25990;52.768;16.930;2024-03-17T00:31:53;101989.96;;;4.34;73.54
40276;BME280;25990;52.768;16.930;2024-03-17T00:34:15;101986.30;;;4.41;74.49
40276;BME280;25990;52.768;16.930;2024-03-17T00:36:38;101986.72;;;4.46;74.60
40276;BME280;25990;52.768;16.930;2024-03-17T00:39:00;101986.88;;;4.47;73.49
40276;BME280;25990;52.768;16.930;2024-03-17T00:41:22;101986.37;;;4.51;73.47
40276;BME280;25990;52.768;16.930;2024-03-17T00:43:45;101989.23;;;4.54;73.62
40276;BME280;25990;52.768;16.930;2024-03-17T00:46:07;101986.19;;;4.59;73.55
40276;BME280;25990;52.768;16.930;2024-03-17T00:48:29;101980.28;;;4.60;73.06
40276;BME280;25990;52.768;16.930;2024-03-17T00:50:58;101975.30;;;4.61;72.32
40276;BME280;25990;52.768;16.930;2024-03-17T00:53:14;101977.97;;;4.63;72.74
40276;BME280;25990;52.768;16.930;2024-03-17T00:55:37;101980.07;;;4.67;72.64
40276;BME280;25990;52.768;16.930;2024-03-17T00:57:58;101979.48;;;4.69;72.79
40276;BME280;25990;52.768;16.930;2024-03-17T01:00:20;101975.23;;;4.70;71.55
40276;BME280;25990;52.768;16.930;2024-03-17T01:02:44;101971.76;;;4.69;71.54
40276;BME280;25990;52.768;16.930;2024-03-17T01:05:06;101977.65;;;4.68;71.48
40276;BME280;25990;52.768;16.930;2024-03-17T01:07:27;101968.27;;;4.69;71.42
40276;BME280;25990;52.768;16.930;2024-03-17T01:09:50;101973.40;;;4.69;71.13
40276;BME280;25990;52.768;16.930;2024-03-17T01:12:12;101964.95;;;4.70;71.02
40276;BME280;25990;52.768;16.930;2024-03-17T01:14:34;101964.06;;;4.69;71.63
40276;BME280;25990;52.768;16.930;2024-03-17T01:16:57;101967.53;;;4.70;70.79
40276;BME280;25990;52.768;16.930;2024-03-17T01:19:18;101963.29;;;4.70;70.34
40276;BME280;25990;52.768;16.930;2024-03-17T01:21:40;101968.57;;;4.72;70.84
40276;BME280;25990;52.768;16.930;2024-03-17T01:24:03;101968.57;;;4.72;70.66
40276;BME280;25990;52.768;16.930;2024-03-17T01:26:25;101975.65;;;4.74;70.27
40276;BME280;25990;52.768;16.930;2024-03-17T01:28:47;101964.06;;;4.69;68.96
40276;BME280;25990;52.768;16.930;2024-03-17T01:31:10;101954.68;;;4.70;69.40
40276;BME280;25990;52.768;16.930;2024-03-17T01:33:32;101960.87;;;4.72;69.83
40276;BME280;25990;52.768;16.930;2024-03-17T01:35:54;101953.79;;;4.69;69.48
40276;BME280;25990;52.768;16.930;2024-03-17T01:38:16;101956.21;;;4.68;68.46
40276;BME280;25990;52.768;16.930;2024-03-17T01:40:39;101956.21;;;4.68;69.01
40276;BME280;25990;52.768;16.930;2024-03-17T01:43:01;101955.31;;;4.67;68.30
40276;BME280;25990;52.768;16.930;2024-03-17T01:45:30;101935.37;;;4.65;67.49
40276;BME280;25990;52.768;16.930;2024-03-17T01:47:45;101951.81;;;4.67;68.31
40276;BME280;25990;52.768;16.930;2024-03-17T01:50:08;101949.25;;;4.67;67.22
40276;BME280;25990;52.768;16.930;2024-03-17T01:52:30;101951.07;;;4.68;67.05
40276;BME280;25990;52.768;16.930;2024-03-17T01:54:52;101946.83;;;4.68;66.70
40276;BME280;25990;52.768;16.930;2024-03-17T01:57:15;101952.86;;;4.69;66.79
40276;BME280;25990;52.768;16.930;2024-03-17T01:59:36;101945.93;;;4.68;66.17
40276;BME280;25990;52.768;16.930;2024-03-17T02:01:59;101949.25;;;4.67;66.32
40276;BME280;25990;52.768;16.930;2024-03-17T02:04:21;101951.97;;;4.68;66.91
40276;BME280;25990;52.768;16.930;2024-03-17T02:06:43;101954.80;;;4.71;66.30
40276;BME280;25990;52.768;16.930;2024-03-17T02:09:06;101960.87;;;4.72;66.54
40276;BME280;25990;52.768;16.930;2024-03-17T02:11:30;101956.77;;;4.74;66.58
40276;BME280;25990;52.768;16.930;2024-03-17T02:13:51;101949.81;;;4.73;66.16
40276;BME280;25990;52.768;16.930;2024-03-17T02:16:13;101954.21;;;4.74;65.01
40276;BME280;25990;52.768;16.930;2024-03-17T02:18:34;101956.77;;;4.74;66.23
40276;BME280;25990;52.768;16.930;2024-03-17T02:20:57;101956.77;;;4.74;66.07
40276;BME280;25990;52.768;16.930;2024-03-17T02:23:19;101951.63;;;4.74;65.52
40276;BME280;25990;52.768;16.930;2024-03-17T02:25:41;101955.99;;;4.75;66.24
40276;BME280;25990;52.768;16.930;2024-03-17T02:28:04;101954.95;;;4.73;66.09
40276;BME280;25990;52.768;16.930;2024-03-17T02:30:26;101945.46;;;4.72;66.10
40276;BME280;25990;52.768;16.930;2024-03-17T02:32:52;101945.57;;;4.73;66.17
40276;BME280;25990;52.768;16.930;2024-03-17T02:35:11;101949.06;;;4.74;66.25
40276;BME280;25990;52.768;16.930;2024-03-17T02:37:33;101948.14;;;4.73;65.35
40276;BME280;25990;52.768;16.930;2024-03-17T02:39:55;101951.63;;;4.74;65.89
40276;BME280;25990;52.768;16.930;2024-03-17T02:42:17;101946.35;;;4.72;65.34
40276;BME280;25990;52.768;16.930;2024-03-17T02:44:39;101951.63;;;4.74;66.18
40276;BME280;25990;52.768;16.930;2024-03-17T02:47:04;101952.52;;;4.74;66.44
40276;BME280;25990;52.768;16.930;2024-03-17T02:49:28;101954.95;;;4.73;66.33
40276;BME280;25990;52.768;16.930;2024-03-17T02:51:46;101949.81;;;4.73;66.08
40276;BME280;25990;52.768;16.930;2024-03-17T02:54:08;101948.03;;;4.72;66.16
40276;BME280;25990;52.768;16.930;2024-03-17T02:56:30;101944.41;;;4.70;66.24
40276;BME280;25990;52.768;16.930;2024-03-17T02:58:52;101939.27;;;4.70;65.59
40276;BME280;25990;52.768;16.930;2024-03-17T03:01:15;101928.70;;;4.67;64.78
40276;BME280;25990;52.768;16.930;2024-03-17T03:03:36;101932.05;;;4.66;65.20
40276;BME280;25990;52.768;16.930;2024-03-17T03:05:59;101923.56;;;4.67;65.48
40276;BME280;25990;52.768;16.930;2024-03-17T03:08:20;101926.91;;;4.66;65.10
40276;BME280;25990;52.768;16.930;2024-03-17T03:10:44;101934.47;;;4.64;65.59
40276;BME280;25990;52.768;16.930;2024-03-17T03:13:05;101940.23;;;4.62;64.87
40276;BME280;25990;52.768;16.930;2024-03-17T03:15:31;101942.95;;;4.63;65.35
40276;BME280;25990;52.768;16.930;2024-03-17T03:17:50;101941.13;;;4.62;66.05
40276;BME280;25990;52.768;16.930;2024-03-17T03:20:12;101942.54;;;4.59;66.01
40276;BME280;25990;52.768;16.930;2024-03-17T03:22:34;101937.99;;;4.56;66.69
40276;BME280;25990;52.768;16.930;2024-03-17T03:24:57;101949.20;;;4.56;66.75
40276;BME280;25990;52.768;16.930;2024-03-17T03:27:19;101947.38;;;4.55;67.56
40276;BME280;25990;52.768;16.930;2024-03-17T03:29:41;101944.06;;;4.56;67.73
40276;BME280;25990;52.768;16.930;2024-03-17T03:32:03;101945.44;;;4.53;67.10
40276;BME280;25990;52.768;16.930;2024-03-17T03:34:25;101946.80;;;4.49;67.70
40276;BME280;25990;52.768;16.930;2024-03-17T03:36:47;101941.67;;;4.49;68.40
40276;BME280;25990;52.768;16.930;2024-03-17T03:39:10;101940.36;;;4.44;68.69
40276;BME280;25990;52.768;16.930;2024-03-17T03:41:32;101945.49;;;4.44;68.38
40276;BME280;25990;52.768;16.930;2024-03-17T03:43:54;101941.14;;;4.43;68.67
40276;BME280;25990;52.768;16.930;2024-03-17T03:46:17;101936.01;;;4.43;69.01
40276;BME280;25990;52.768;16.930;2024-03-17T03:48:39;101940.98;;;4.42;68.94
40276;BME280;25990;52.768;16.930;2024-03-17T03:51:07;101936.74;;;4.42;68.85
40276;BME280;25990;52.768;16.930;2024-03-17T03:53:23;101938.69;;;4.45;68.63
40276;BME280;25990;52.768;16.930;2024-03-17T03:55:46;101934.32;;;4.44;68.50
40276;BME280;25990;52.768;16.930;2024-03-17T03:58:08;101944.60;;;4.44;69.04
40276;BME280;25990;52.768;16.930;2024-03-17T04:00:32;101940.98;;;4.42;68.66
40276;BME280;25990;52.768;16.930;2024-03-17T04:02:52;101946.12;;;4.42;68.61
40276;BME280;25990;52.768;16.930;2024-03-17T04:05:15;101941.87;;;4.42;69.04
40276;BME280;25990;52.768;16.930;2024-03-17T04:07:37;101944.45;;;4.42;69.39
40276;BME280;25990;52.768;16.930;2024-03-17T04:10:00;101944.33;;;4.41;69.56
40276;BME280;25990;52.768;16.930;2024-03-17T04:12:22;101954.45;;;4.39;69.56
40276;BME280;25990;52.768;16.930;2024-03-17T04:14:44;101948.53;;;4.40;68.87
40276;BME280;25990;52.768;16.930;2024-03-17T04:17:06;101946.75;;;4.39;68.92
40276;BME280;25990;52.768;16.930;2024-03-17T04:19:28;101950.05;;;4.38;69.67
40276;BME280;25990;52.768;16.930;2024-03-17T04:21:50;101948.27;;;4.37;69.81
40276;BME280;25990;52.768;16.930;2024-03-17T04:24:12;101947.84;;;4.32;69.20
40276;BME280;25990;52.768;16.930;2024-03-17T04:26:34;101952.08;;;4.32;69.22
40276;BME280;25990;52.768;16.930;2024-03-17T04:28:56;101946.80;;;4.30;69.27
40276;BME280;25990;52.768;16.930;2024-03-17T04:31:19;101956.17;;;4.30;69.99
40276;BME280;25990;52.768;16.930;2024-03-17T04:33:41;101955.12;;;4.28;69.04
40276;BME280;25990;52.768;16.930;2024-03-17T04:36:04;101952.68;;;4.29;69.56
40276;BME280;25990;52.768;16.930;2024-03-17T04:38:26;101955.87;;;4.27;69.66
40276;BME280;25990;52.768;16.930;2024-03-17T04:40:48;101960.11;;;4.26;70.24
40276;BME280;25990;52.768;16.930;2024-03-17T04:43:11;101961.78;;;4.26;69.72
40276;BME280;25990;52.768;16.930;2024-03-17T04:45:33;101962.41;;;4.23;69.97
40276;BME280;25990;52.768;16.930;2024-03-17T04:47:55;101961.78;;;4.26;69.97
40276;BME280;25990;52.768;16.930;2024-03-17T04:50:17;101971.57;;;4.30;70.10
40276;BME280;25990;52.768;16.930;2024-03-17T04:52:39;101977.88;;;4.33;70.34
40276;BME280;25990;52.768;16.930;2024-03-17T04:55:02;101982.10;;;4.33;69.95
40276;BME280;25990;52.768;16.930;2024-03-17T04:57:24;101976.35;;;4.35;70.16
40276;BME280;25990;52.768;16.930;2024-03-17T04:59:46;101981.07;;;4.31;71.00
40276;BME280;25990;52.768;16.930;2024-03-17T05:02:08;101981.53;;;4.27;71.20
40276;BME280;25990;52.768;16.930;2024-03-17T05:04:30;101980.48;;;4.25;72.44
40276;BME280;25990;52.768;16.930;2024-03-17T05:06:52;101976.60;;;4.20;73.20
40276;BME280;25990;52.768;16.930;2024-03-17T05:09:14;101976.95;;;4.14;74.11
40276;BME280;25990;52.768;16.930;2024-03-17T05:11:36;101985.12;;;4.10;73.88
40276;BME280;25990;52.768;16.930;2024-03-17T05:13:59;101986.75;;;4.09;74.02
40276;BME280;25990;52.768;16.930;2024-03-17T05:16:21;101995.23;;;4.08;74.17
40276;BME280;25990;52.768;16.930;2024-03-17T05:18:43;102000.35;;;4.08;74.20
40276;BME280;25990;52.768;16.930;2024-03-17T05:21:06;101997.17;;;4.11;74.69
40276;BME280;25990;52.768;16.930;2024-03-17T05:23:31;102001.41;;;4.10;74.50
40276;BME280;25990;52.768;16.930;2024-03-17T05:25:52;102009.84;;;4.09;74.86
40276;BME280;25990;52.768;16.930;2024-03-17T05:28:11;102017.27;;;4.06;75.15
40276;BME280;25990;52.768;16.930;2024-03-17T05:30:36;102023.45;;;4.08;76.32
40276;BME280;25990;52.768;16.930;2024-03-17T05:32:56;102015.48;;;4.05;76.42
40276;BME280;25990;52.768;16.930;2024-03-17T05:35:17;102035.23;;;4.06;76.75
40276;BME280;25990;52.768;16.930;2024-03-17T05:37:40;102046.26;;;4.05;77.57
40276;BME280;25990;52.768;16.930;2024-03-17T05:40:02;102058.04;;;4.03;77.05
40276;BME280;25990;52.768;16.930;2024-03-17T05:42:24;102051.56;;;3.89;76.81
40276;BME280;25990;52.768;16.930;2024-03-17T05:44:47;102047.51;;;3.83;75.95
40276;BME280;25990;52.768;16.930;2024-03-17T05:47:09;102058.83;;;3.85;76.55
40276;BME280;25990;52.768;16.930;2024-03-17T05:49:31;102061.12;;;3.82;76.39
40276;BME280;25990;52.768;16.930;2024-03-17T05:51:53;102061.27;;;3.83;77.18
40276;BME280;25990;52.768;16.930;2024-03-17T05:54:15;102063.52;;;3.80;78.76
40276;BME280;25990;52.768;16.930;2024-03-17T05:56:38;102063.39;;;3.79;79.22
40276;BME280;25990;52.768;16.930;2024-03-17T05:59:00;102063.69;;;3.73;77.98
40276;BME280;25990;52.768;16.930;2024-03-17T06:01:22;102066.87;;;3.70;78.23
40276;BME280;25990;52.768;16.930;2024-03-17T06:03:44;102070.16;;;3.69;78.54
40276;BME280;25990;52.768;16.930;2024-03-17T06:06:06;102081.48;;;3.71;78.95
40276;BME280;25990;52.768;16.930;2024-03-17T06:08:28;102082.54;;;3.73;78.49
40276;BME280;25990;52.768;16.930;2024-03-17T06:10:50;102080.13;;;3.75;78.19
40276;BME280;25990;52.768;16.930;2024-03-17T06:13:13;102086.16;;;3.76;77.89
40276;BME280;25990;52.768;16.930;2024-03-17T06:15:37;102096.12;;;3.81;78.19
40276;BME280;25990;52.768;16.930;2024-03-17T06:18:00;102097.30;;;3.85;78.24
40276;BME280;25990;52.768;16.930;2024-03-17T06:20:25;102100.62;;;3.92;77.66
40276;BME280;25990;52.768;16.930;2024-03-17T06:22:42;102097.72;;;3.98;77.20
40276;BME280;25990;52.768;16.930;2024-03-17T06:25:04;102100.15;;;4.05;77.19
40276;BME280;25990;52.768;16.930;2024-03-17T06:27:26;102116.56;;;4.07;75.90
40276;BME280;25990;52.768;16.930;2024-03-17T06:29:48;102112.95;;;4.14;76.28
40276;BME280;25990;52.768;16.930;2024-03-17T06:32:10;102117.74;;;4.20;76.41
40276;BME280;25990;52.768;16.930;2024-03-17T06:34:32;102116.23;;;4.22;76.32
40276;BME280;25990;52.768;16.930;2024-03-17T06:36:55;102114.72;;;4.24;75.37
40276;BME280;25990;52.768;16.930;2024-03-17T06:39:17;102116.05;;;4.29;75.72
40276;BME280;25990;52.768;16.930;2024-03-17T06:41:39;102127.68;;;4.34;75.28
40276;BME280;25990;52.768;16.930;2024-03-17T06:44:02;102131.12;;;4.43;75.46
40276;BME280;25990;52.768;16.930;2024-03-17T06:46:24;102128.52;;;4.52;75.29
40276;BME280;25990;52.768;16.930;2024-03-17T06:48:46;102129.23;;;4.60;74.67
40276;BME280;25990;52.768;16.930;2024-03-17T06:51:08;102128.48;;;4.61;73.54
40276;BME280;25990;52.768;16.930;2024-03-17T06:53:30;102130.00;;;4.59;73.07
40276;BME280;25990;52.768;16.930;2024-03-17T06:55:53;102133.77;;;4.53;73.14
40276;BME280;25990;52.768;16.930;2024-03-17T06:58:14;102136.68;;;4.48;72.37
40276;BME280;25990;52.768;16.930;2024-03-17T07:00:36;102147.57;;;4.45;73.14
40276;BME280;25990;52.768;16.930;2024-03-17T07:02:59;102134.42;;;4.42;74.67
40276;BME280;25990;52.768;16.930;2024-03-17T07:05:21;102140.18;;;4.40;73.58
40276;BME280;25990;52.768;16.930;2024-03-17T07:07:43;102143.36;;;4.37;72.85
40276;BME280;25990;52.768;16.930;2024-03-17T07:10:06;102153.35;;;4.34;73.67
40276;BME280;25990;52.768;16.930;2024-03-17T07:12:28;102150.45;;;4.40;74.06
40276;BME280;25990;52.768;16.930;2024-03-17T07:14:50;102150.72;;;4.43;74.74
40276;BME280;25990;52.768;16.930;2024-03-17T07:17:13;102153.76;;;4.47;74.30
40276;BME280;25990;52.768;16.930;2024-03-17T07:19:35;102146.18;;;4.49;73.70
40276;BME280;25990;52.768;16.930;2024-03-17T07:21:58;102151.74;;;4.53;72.59
40276;BME280;25990;52.768;16.930;2024-03-17T07:24:20;102148.72;;;4.58;71.71
40276;BME280;25990;52.768;16.930;2024-03-17T07:26:42;102150.66;;;4.60;71.60
40276;BME280;25990;52.768;16.930;2024-03-17T07:29:04;102149.45;;;4.65;71.31
40276;BME280;25990;52.768;16.930;2024-03-17T07:31:31;102151.40;;;4.68;69.68
40276;BME280;25990;52.768;16.930;2024-03-17T07:33:48;102145.91;;;4.73;70.27
40276;BME280;25990;52.768;16.930;2024-03-17T07:36:11;102157.55;;;4.79;68.38
40276;BME280;25990;52.768;16.930;2024-03-17T07:38:34;102152.70;;;4.82;67.01
40276;BME280;25990;52.768;16.930;2024-03-17T07:41:02;102154.45;;;4.91;67.85
40276;BME280;25990;52.768;16.930;2024-03-17T07:43:18;102154.27;;;4.98;66.11
40276;BME280;25990;52.768;16.930;2024-03-17T07:45:41;102159.96;;;5.05;66.25
40276;BME280;25990;52.768;16.930;2024-03-17T07:48:03;102164.16;;;5.13;66.21
40276;BME280;25990;52.768;16.930;2024-03-17T07:50:25;102164.56;;;5.17;65.65
40276;BME280;25990;52.768;16.930;2024-03-17T07:52:47;102170.02;;;5.21;63.92
40276;BME280;25990;52.768;16.930;2024-03-17T07:55:09;102171.96;;;5.23;65.13
40276;BME280;25990;52.768;16.930;2024-03-17T07:57:31;102170.44;;;5.25;64.11
40276;BME280;25990;52.768;16.930;2024-03-17T07:59:55;102177.66;;;5.29;63.63
40276;BME280;25990;52.768;16.930;2024-03-17T08:02:19;102185.45;;;5.39;63.12
40276;BME280;25990;52.768;16.930;2024-03-17T08:04:39;102186.01;;;5.46;62.66
40276;BME280;25990;52.768;16.930;2024-03-17T08:07:00;102189.78;;;5.68;61.71
40276;BME280;25990;52.768;16.930;2024-03-17T08:09:22;102170.31;;;5.80;60.01
40276;BME280;25990;52.768;16.930;2024-03-17T08:11:44;102196.67;;;5.78;57.98
40276;BME280;25990;52.768;16.930;2024-03-17T08:14:06;102188.52;;;5.73;58.49
40276;BME280;25990;52.768;16.930;2024-03-17T08:16:29;102187.98;;;5.67;58.58
40276;BME280;25990;52.768;16.930;2024-03-17T08:18:51;102186.73;;;5.72;59.21
40276;BME280;25990;52.768;16.930;2024-03-17T08:21:13;102192.76;;;5.73;59.92
40276;BME280;25990;52.768;16.930;2024-03-17T08:23:36;102184.70;;;5.97;58.84
40276;BME280;25990;52.768;16.930;2024-03-17T08:26:01;102184.75;;;6.27;59.16
40276;BME280;25990;52.768;16.930;2024-03-17T08:28:20;102182.88;;;6.45;59.96
40276;BME280;25990;52.768;16.930;2024-03-17T08:30:42;102186.36;;;6.45;58.19
40276;BME280;25990;52.768;16.930;2024-03-17T08:33:04;102191.95;;;6.31;57.52
40276;BME280;25990;52.768;16.930;2024-03-17T08:35:29;102189.75;;;6.25;59.24
40276;BME280;25990;52.768;16.930;2024-03-17T08:37:48;102187.93;;;6.24;58.97
40276;BME280;25990;52.768;16.930;2024-03-17T08:40:11;102186.87;;;6.12;58.42
40276;BME280;25990;52.768;16.930;2024-03-17T08:43:19;102191.23;;;6.13;58.80
40276;BME280;25990;52.768;16.930;2024-03-17T08:45:40;102190.06;;;6.09;59.61
40276;BME280;25990;52.768;16.930;2024-03-17T08:48:03;102186.48;;;6.17;59.17
40276;BME280;25990;52.768;16.930;2024-03-17T08:50:25;102183.63;;;6.43;59.52
40276;BME280;25990;52.768;16.930;2024-03-17T08:52:47;102185.76;;;6.58;58.39
40276;BME280;25990;52.768;16.930;2024-03-17T08:55:10;102191.12;;;6.51;57.20
40276;BME280;25990;52.768;16.930;2024-03-17T08:57:31;102189.69;;;6.44;57.38
40276;BME280;25990;52.768;16.930;2024-03-17T08:59:53;102190.89;;;6.18;56.27
40276;BME280;25990;52.768;16.930;2024-03-17T09:02:18;102197.01;;;6.10;57.83
40276;BME280;25990;52.768;16.930;2024-03-17T09:04:38;102204.48;;;6.07;60.35
40276;BME280;25990;52.768;16.930;2024-03-17T09:07:00;102203.42;;;6.05;60.59
40276;BME280;25990;52.768;16.930;2024-03-17T09:09:23;102201.08;;;5.98;60.26
40276;BME280;25990;52.768;16.930;2024-03-17T09:11:44;102196.30;;;5.84;60.34
40276;BME280;25990;52.768;16.930;2024-03-17T09:14:08;102200.36;;;5.71;61.06
40276;BME280;25990;52.768;16.930;2024-03-17T09:16:29;102207.63;;;5.67;62.18
40276;BME280;25990;52.768;16.930;2024-03-17T09:18:51;102202.08;;;5.62;61.61
40276;BME280;25990;52.768;16.930;2024-03-17T09:21:14;102208.83;;;5.70;62.13
40276;BME280;25990;52.768;16.930;2024-03-17T09:23:36;102203.28;;;5.85;62.86
40276;BME280;25990;52.768;16.930;2024-03-17T09:26:11;102214.26;;;5.92;61.89
40276;BME280;25990;52.768;16.930;2024-03-17T09:28:20;102204.70;;;6.00;59.80
40276;BME280;25990;52.768;16.930;2024-03-17T09:30:47;102201.60;;;6.04;60.29
40276;BME280;25990;52.768;16.930;2024-03-17T09:33:04;102212.27;;;5.98;59.81
40276;BME280;25990;52.768;16.930;2024-03-17T09:35:26;102210.78;;;5.92;59.87
40276;BME280;25990;52.768;16.930;2024-03-17T09:37:49;102216.63;;;5.80;59.94
40276;BME280;25990;52.768;16.930;2024-03-17T09:40:14;102219.13;;;5.70;59.03
40276;BME280;25990;52.768;16.930;2024-03-17T09:42:33;102211.94;;;5.57;58.99
40276;BME280;25990;52.768;16.930;2024-03-17T09:44:55;102219.54;;;5.56;60.14
40276;BME280;25990;52.768;16.930;2024-03-17T09:47:21;102226.21;;;5.73;58.89
40276;BME280;25990;52.768;16.930;2024-03-17T09:49:40;102223.31;;;5.97;60.50
40276;BME280;25990;52.768;16.930;2024-03-17T09:52:01;102218.16;;;6.46;58.79
40276;BME280;25990;52.768;16.930;2024-03-17T09:54:23;102216.78;;;6.59;57.09
40276;BME280;25990;52.768;16.930;2024-03-17T09:56:46;102218.16;;;6.46;54.92
40276;BME280;25990;52.768;16.930;2024-03-17T09:59:07;102221.61;;;6.36;56.84
40276;BME280;25990;52.768;16.930;2024-03-17T10:01:29;102220.58;;;6.15;55.61
40276;BME280;25990;52.768;16.930;2024-03-17T10:03:53;102223.73;;;6.02;57.18
40276;BME280;25990;52.768;16.930;2024-03-17T10:06:15;102234.84;;;5.92;58.05
40276;BME280;25990;52.768;16.930;2024-03-17T10:10:58;102234.28;;;5.67;58.55
40276;BME280;25990;52.768;16.930;2024-03-17T10:13:20;102245.95;;;5.45;61.73
40276;BME280;25990;52.768;16.930;2024-03-17T10:15:50;102242.58;;;5.18;61.96
40276;BME280;25990;52.768;16.930;2024-03-17T10:18:27;102250.56;;;4.93;62.27
40276;BME280;25990;52.768;16.930;2024-03-17T10:20:26;102253.94;;;4.84;62.96
40276;BME280;25990;52.768;16.930;2024-03-17T10:25:11;102254.65;;;4.91;63.98
40276;BME280;25990;52.768;16.930;2024-03-17T10:27:33;102249.16;;;5.06;60.73
40276;BME280;25990;52.768;16.930;2024-03-17T10:29:55;102250.87;;;5.24;61.92
40276;BME280;25990;52.768;16.930;2024-03-17T10:32:17;102253.73;;;5.55;61.21
40276;BME280;25990;52.768;16.930;2024-03-17T10:34:40;102252.92;;;5.84;60.21
40276;BME280;25990;52.768;16.930;2024-03-17T10:37:11;102258.87;;;6.01;60.39
40276;BME280;25990;52.768;16.930;2024-03-17T10:39:28;102246.55;;;6.27;60.69
40276;BME280;25990;52.768;16.930;2024-03-17T10:41:47;102248.41;;;6.38;59.58
40276;BME280;25990;52.768;16.930;2024-03-17T10:44:10;102260.87;;;6.33;58.83
40276;BME280;25990;52.768;16.930;2024-03-17T10:46:31;102257.37;;;6.33;57.07
40276;BME280;25990;52.768;16.930;2024-03-17T10:48:53;102249.65;;;6.33;57.13
40276;BME280;25990;52.768;16.930;2024-03-17T10:51:17;102254.68;;;6.31;56.36
40276;BME280;25990;52.768;16.930;2024-03-17T10:53:38;102267.97;;;6.36;56.11
40276;BME280;25990;52.768;16.930;2024-03-17T10:56:05;102264.46;;;6.35;55.64
40276;BME280;25990;52.768;16.930;2024-03-17T10:58:33;102260.27;;;6.46;56.75
40276;BME280;25990;52.768;16.930;2024-03-17T11:00:45;102274.10;;;6.57;56.40
40276;BME280;25990;52.768;16.930;2024-03-17T11:03:08;102263.62;;;6.74;58.50
40276;BME280;25990;52.768;16.930;2024-03-17T11:05:30;102263.71;;;6.66;56.29
40276;BME280;25990;52.768;16.930;2024-03-17T11:07:52;102267.34;;;6.38;56.08
40276;BME280;25990;52.768;16.930;2024-03-17T11:10:22;102265.07;;;6.23;57.70
40276;BME280;25990;52.768;16.930;2024-03-17T11:12:42;102283.06;;;5.85;60.71
40276;BME280;25990;52.768;16.930;2024-03-17T11:17:19;102301.70;;;5.18;65.82
40276;BME280;25990;52.768;16.930;2024-03-17T11:19:41;102291.37;;;4.99;67.17
40276;BME280;25990;52.768;16.930;2024-03-17T11:24:27;102311.09;;;4.72;70.16
40276;BME280;25990;52.768;16.930;2024-03-17T11:26:50;102310.17;;;4.81;69.61
40276;BME280;25990;52.768;16.930;2024-03-17T11:31:39;102310.87;;;4.97;69.23
40276;BME280;25990;52.768;16.930;2024-03-17T11:33:54;102318.83;;;5.09;69.86
40276;BME280;25990;52.768;16.930;2024-03-17T11:43:22;102311.92;;;5.35;66.11
40276;BME280;25990;52.768;16.930;2024-03-17T11:45:45;102309.73;;;5.49;64.59
40276;BME280;25990;52.768;16.930;2024-03-17T11:48:12;102295.41;;;5.70;63.44
40276;BME280;25990;52.768;16.930;2024-03-17T11:50:29;102300.29;;;5.86;60.70
40276;BME280;25990;52.768;16.930;2024-03-17T11:52:57;102311.01;;;5.90;61.02
40276;BME280;25990;52.768;16.930;2024-03-17T11:55:17;102297.36;;;6.00;58.26
40276;BME280;25990;52.768;16.930;2024-03-17T11:57:36;102292.80;;;5.97;57.77
40276;BME280;25990;52.768;16.930;2024-03-17T11:59:58;102291.92;;;5.97;59.16
40276;BME280;25990;52.768;16.930;2024-03-17T12:02:22;102308.44;;;5.90;60.04
40276;BME280;25990;52.768;16.930;2024-03-17T12:04:43;102308.74;;;5.66;55.94
40276;BME280;25990;52.768;16.930;2024-03-17T12:07:12;102318.70;;;5.44;57.34
40276;BME280;25990;52.768;16.930;2024-03-17T12:09:31;102320.48;;;5.17;57.68
40276;BME280;25990;52.768;16.930;2024-03-17T12:14:21;102315.75;;;4.85;58.67
40276;BME280;25990;52.768;16.930;2024-03-17T12:16:33;102316.95;;;4.80;58.43
40276;BME280;25990;52.768;16.930;2024-03-17T12:21:17;102310.92;;;4.71;57.68
40276;BME280;25990;52.768;16.930;2024-03-17T12:23:40;102316.24;;;4.64;58.03
40276;BME280;25990;52.768;16.930;2024-03-17T12:26:02;102322.43;;;4.66;58.21
40276;BME280;25990;52.768;16.930;2024-03-17T12:28:24;102320.75;;;4.75;58.04
40276;BME280;25990;52.768;16.930;2024-03-17T12:30:47;102324.52;;;4.87;57.90
40276;BME280;25990;52.768;16.930;2024-03-17T12:33:11;102323.72;;;4.97;57.52
40276;BME280;25990;52.768;16.930;2024-03-17T12:35:31;102316.45;;;5.02;56.26
40276;BME280;25990;52.768;16.930;2024-03-17T12:37:53;102316.26;;;5.09;56.79
40276;BME280;25990;52.768;16.930;2024-03-17T12:40:20;102327.13;;;5.15;56.94
40276;BME280;25990;52.768;16.930;2024-03-17T12:42:37;102331.37;;;5.14;55.55
40276;BME280;25990;52.768;16.930;2024-03-17T12:45:00;102328.37;;;5.10;56.03
40276;BME280;25990;52.768;16.930;2024-03-17T12:47:23;102332.15;;;5.05;55.79